Time;durP1;ratioP1;P1;durP2;ratioP2;P2;SDS_P1;SDS_P2;PMS_P1;PMS_P2;Temp;Humidity;BMP_temperature;BMP_pressure;BME280_temperature;BME280_humidity;BME280_pressure;Samples;Min_cycle;Max_cycle;Signal;HPM_P1;HPM_P2
2021/03/17 00:02:42;;;;;;;2.33;1.93;;;;;;;6.12;64.41;95728.91;6903047;28;20251;-70
2021/03/17 00:06:05;;;;;;;2.83;1.83;;;;;;;6.17;64.20;95731.25;6913790;28;20227;-70
2021/03/17 00:09:28;;;;;;;1.80;1.70;;;;;;;6.17;64.36;95720.72;6905622;28;20231;-70
2021/03/17 00:12:49;;;;;;;2.23;1.50;;;;;;;6.18;64.23;95722.41;6893496;28;20243;-70
2021/03/17 00:16:13;;;;;;;1.73;1.63;;;;;;;6.18;64.04;95719.78;6902345;28;20286;-70
2021/03/17 00:19:39;;;;;;;2.10;1.40;;;;;;;6.12;63.91;95721.00;6906234;28;20311;-71
2021/03/17 00:22:59;;;;;;;2.70;1.93;;;;;;;6.09;64.09;95708.00;6899989;28;20228;-70
2021/03/17 00:26:20;;;;;;;1.90;1.80;;;;;;;6.06;64.38;95704.72;6910039;28;20942;-70
2021/03/17 00:29:40;;;;;;;2.37;2.17;;;;;;;6.02;64.46;95709.34;6917966;28;20247;-71
2021/03/17 00:33:02;;;;;;;109.83;5.83;;;;;;;5.99;64.48;95715.66;6906290;28;20302;-71
2021/03/17 00:36:23;;;;;;;242.00;9.93;;;;;;;5.87;64.91;95713.81;6900459;28;20264;-70
2021/03/17 00:39:43;;;;;;;389.03;14.47;;;;;;;5.83;64.93;95711.44;6916099;28;20307;-70
2021/03/17 00:43:04;;;;;;;4.60;3.30;;;;;;;5.76;65.04;95696.94;6916868;28;20909;-70
2021/03/17 00:46:28;;;;;;;42.80;3.93;;;;;;;5.78;65.51;95695.06;6914915;28;20717;-70
2021/03/17 00:49:48;;;;;;;30.50;3.73;;;;;;;5.81;65.70;95687.81;6911248;28;20594;-70
2021/03/17 00:53:09;;;;;;;28.70;3.67;;;;;;;5.83;65.93;95685.94;6899466;28;20698;-71
2021/03/17 00:56:29;;;;;;;116.57;6.47;;;;;;;5.82;65.62;95675.47;6917385;28;20229;-70
2021/03/17 00:59:49;;;;;;;13.20;3.70;;;;;;;5.81;65.77;95682.53;6914499;28;20766;-71
2021/03/17 01:03:10;;;;;;;124.60;6.27;;;;;;;5.85;65.56;95672.63;6912778;28;20224;-70
2021/03/17 01:06:32;;;;;;;89.40;5.43;;;;;;;5.83;65.97;95672.75;6917035;28;20213;-70
2021/03/17 01:09:58;;;;;;;131.53;7.33;;;;;;;5.84;65.62;95665.66;6915568;28;20772;-70
2021/03/17 01:13:18;;;;;;;18.20;4.10;;;;;;;5.83;66.07;95667.47;6918202;28;20271;-70
2021/03/17 01:16:41;;;;;;;21.73;4.07;;;;;;;5.85;65.69;95665.56;6916031;28;20233;-71
2021/03/17 01:20:02;;;;;;;4.37;3.60;;;;;;;5.83;65.89;95659.56;6919381;28;20600;-70
2021/03/17 01:23:25;;;;;;;3.57;3.27;;;;;;;5.85;66.04;95660.31;6911289;28;20236;-70
2021/03/17 01:26:45;;;;;;;10.63;3.33;;;;;;;5.86;66.06;95656.72;6920213;28;20242;-70
2021/03/17 01:30:11;;;;;;;27.20;3.80;;;;;;;5.82;65.87;95651.75;6919271;28;20720;-70
2021/03/17 01:33:34;;;;;;;48.53;4.77;;;;;;;5.79;66.06;95644.03;6910834;28;20235;-71
2021/03/17 01:36:57;;;;;;;87.10;6.67;;;;;;;5.79;66.00;95655.41;6909073;28;20215;-71
2021/03/17 01:40:18;;;;;;;37.83;6.30;;;;;;;5.71;66.04;95655.06;6917726;28;20219;-70
2021/03/17 01:43:38;;;;;;;114.77;8.13;;;;;;;5.66;66.06;95654.50;6912717;28;20271;-71
2021/03/17 01:46:59;;;;;;;180.67;9.77;;;;;;;5.60;65.97;95657.53;6906382;28;20220;-71
2021/03/17 01:50:26;;;;;;;186.57;10.17;;;;;;;5.56;66.34;95658.66;6917789;28;20236;-70
2021/03/17 01:53:51;;;;;;;156.47;8.83;;;;;;;5.52;66.35;95657.19;6900991;28;20693;-71
2021/03/17 01:57:11;;;;;;;132.03;7.17;;;;;;;5.53;66.49;95654.44;6911117;28;20223;-71
2021/03/17 02:00:32;;;;;;;78.30;6.33;;;;;;;5.53;66.88;95637.81;6920062;28;20303;-72
2021/03/17 02:03:52;;;;;;;19.77;5.33;;;;;;;5.56;66.48;95646.34;6913372;28;20220;-70
2021/03/17 02:07:13;;;;;;;80.93;6.07;;;;;;;5.59;66.72;95635.59;6918979;28;20216;-70
2021/03/17 02:10:34;;;;;;;9.90;4.40;;;;;;;5.60;66.23;95633.81;6889904;28;20611;-70
2021/03/17 02:14:35;;;;;;;5.33;3.60;;;;;;;5.65;66.40;95630.88;6914550;28;20223;-70
2021/03/17 02:17:59;;;;;;;7.80;4.00;;;;;;;5.70;66.19;95634.94;6878078;28;20223;-70
2021/03/17 02:21:44;;;;;;;123.83;6.90;;;;;;;5.70;66.34;95634.09;6913363;28;20311;-71
2021/03/17 02:25:23;;;;;;;26.20;5.07;;;;;;;5.68;66.33;95628.09;6912328;28;20230;-71
2021/03/17 02:29:17;;;;;;;5.20;3.87;;;;;;;5.65;66.25;95638.78;6913178;28;20224;-71
2021/03/17 02:32:53;;;;;;;5.07;3.93;;;;;;;5.59;66.14;95634.75;6906957;28;20227;-70
2021/03/17 02:36:19;;;;;;;6.63;4.10;;;;;;;5.55;66.45;95630.63;6912131;28;20220;-70
2021/03/17 02:39:42;;;;;;;138.50;7.57;;;;;;;5.57;66.44;95631.41;6909038;28;20223;-70
2021/03/17 02:43:13;;;;;;;48.37;5.80;;;;;;;5.58;66.38;95633.91;6913785;28;20219;-70
2021/03/17 02:46:37;;;;;;;64.17;6.07;;;;;;;5.60;66.38;95629.41;6909859;28;20216;-70
2021/03/17 02:50:03;;;;;;;70.17;7.10;;;;;;;5.61;66.24;95630.25;6894299;28;20247;-70
2021/03/17 02:53:28;;;;;;;24.47;5.00;;;;;;;5.62;66.63;95624.03;6896009;28;20645;-70
2021/03/17 02:56:55;;;;;;;34.87;5.17;;;;;;;5.63;66.17;95623.09;6910957;28;20236;-71
2021/03/17 03:00:16;;;;;;;67.10;5.43;;;;;;;5.58;66.07;95619.91;6912659;28;20228;-70
2021/03/17 03:03:38;;;;;;;30.53;4.73;;;;;;;5.51;66.30;95622.09;6916184;28;20220;-70
2021/03/17 03:07:01;;;;;;;26.73;5.20;;;;;;;5.49;66.37;95620.47;6901550;28;20310;-70
2021/03/17 03:10:27;;;;;;;57.00;5.87;;;;;;;5.50;66.44;95622.16;6908871;28;20302;-71
2021/03/17 03:13:50;;;;;;;5.10;4.60;;;;;;;5.51;66.53;95615.97;6907886;28;20212;-70
2021/03/17 03:17:14;;;;;;;11.60;5.10;;;;;;;5.52;66.32;95607.13;6912373;28;20228;-70
2021/03/17 03:20:37;;;;;;;5.13;4.63;;;;;;;5.52;66.42;95607.13;6913121;28;20273;-70
2021/03/17 03:23:58;;;;;;;4.93;4.53;;;;;;;5.52;66.56;95612.41;6901825;28;20227;-70
2021/03/17 03:27:21;;;;;;;5.00;4.50;;;;;;;5.52;66.42;95609.75;6907998;28;20215;-71
2021/03/17 03:30:46;;;;;;;18.30;4.50;;;;;;;5.56;66.46;95613.88;6917006;28;20224;-70
2021/03/17 03:34:09;;;;;;;4.63;4.23;;;;;;;5.57;66.28;95618.22;6909462;28;20231;-70
2021/03/17 03:37:29;;;;;;;5.57;3.03;;;;;;;5.59;66.59;95622.44;6910508;28;20235;-70
2021/03/17 03:40:52;;;;;;;3.63;3.33;;;;;;;5.59;66.47;95613.69;6910522;28;20243;-70
2021/03/17 03:44:13;;;;;;;9.27;4.10;;;;;;;5.56;66.17;95609.47;6900076;28;20288;-71
2021/03/17 03:47:38;;;;;;;7.53;5.47;;;;;;;5.51;66.69;95606.28;6897031;28;20314;-71
2021/03/17 03:50:59;;;;;;;7.13;4.70;;;;;;;5.50;67.03;95615.13;6923968;28;20790;-71
2021/03/17 03:54:30;;;;;;;6.90;4.67;;;;;;;5.51;66.76;95624.72;6916577;28;20541;-70
2021/03/17 03:57:54;;;;;;;18.17;5.60;;;;;;;5.49;66.72;95623.97;6913418;28;20595;-70
2021/03/17 04:01:19;;;;;;;4.97;4.57;;;;;;;5.45;66.50;95629.50;6913640;28;20274;-70
2021/03/17 04:04:42;;;;;;;4.70;4.30;;;;;;;5.49;66.69;95631.84;6864450;28;20220;-70
2021/03/17 04:08:11;;;;;;;50.33;6.40;;;;;;;5.48;66.36;95637.25;6920169;28;20628;-70
2021/03/17 04:11:34;;;;;;;21.17;6.67;;;;;;;5.44;66.42;95643.63;6916174;28;20681;-71
2021/03/17 04:14:57;;;;;;;66.37;7.90;;;;;;;5.44;67.08;95646.25;6915402;28;20309;-70
2021/03/17 04:18:20;;;;;;;8.87;6.57;;;;;;;5.34;67.04;95645.13;6916363;28;20208;-71
2021/03/17 04:21:41;;;;;;;9.17;6.63;;;;;;;5.34;67.56;95645.13;6923660;28;20235;-71
2021/03/17 04:25:07;;;;;;;18.47;5.80;;;;;;;5.39;67.56;95648.31;6913665;28;20215;-71
2021/03/17 04:28:28;;;;;;;110.00;10.03;;;;;;;5.43;67.80;95658.56;6920713;28;20253;-72
2021/03/17 04:31:50;;;;;;;7.20;6.50;;;;;;;5.45;67.18;95656.72;6918083;28;20224;-71
2021/03/17 04:35:12;;;;;;;84.50;9.97;;;;;;;5.43;67.17;95657.75;6923426;28;20310;-70
2021/03/17 04:38:33;;;;;;;101.97;10.37;;;;;;;5.42;67.09;95661.31;6918777;28;20211;-70
2021/03/17 04:41:55;;;;;;;11.07;8.63;;;;;;;5.39;67.37;95664.13;6905218;28;20211;-70
2021/03/17 04:45:17;;;;;;;9.57;8.67;;;;;;;5.39;67.43;95661.50;6912559;28;20207;-70
2021/03/17 04:48:41;;;;;;;5.93;5.33;;;;;;;5.37;67.37;95663.41;6906381;28;20303;-71
2021/03/17 04:52:01;;;;;;;6.93;5.60;;;;;;;5.34;67.47;95668.84;6901120;28;20223;-71
2021/03/17 04:55:22;;;;;;;6.30;5.80;;;;;;;5.28;67.22;95667.41;6897951;28;20216;-71
2021/03/17 04:58:42;;;;;;;4.00;3.60;;;;;;;5.34;67.45;95676.72;6909790;28;20272;-71
2021/03/17 05:02:03;;;;;;;2.23;2.13;;;;;;;5.37;67.24;95682.69;6909413;28;20219;-70
2021/03/17 05:05:23;;;;;;;3.13;2.90;;;;;;;5.41;67.38;95680.69;6908070;28;20209;-70
2021/03/17 05:08:45;;;;;;;4.00;3.70;;;;;;;5.44;67.37;95669.97;6920313;28;20318;-71
2021/03/17 05:12:06;;;;;;;8.30;5.63;;;;;;;5.40;67.47;95674.59;6915622;28;20223;-71
2021/03/17 05:15:29;;;;;;;4.13;3.83;;;;;;;5.42;67.22;95669.22;6912947;28;20632;-70
2021/03/17 05:18:50;;;;;;;2.80;2.60;;;;;;;5.42;67.04;95672.72;6906851;28;20246;-71
2021/03/17 05:22:15;;;;;;;3.60;3.30;;;;;;;5.46;67.19;95666.31;6907471;28;20216;-71
2021/03/17 05:25:36;;;;;;;3.33;3.03;;;;;;;5.52;66.89;95663.28;6906332;28;20597;-70
2021/03/17 05:28:58;;;;;;;3.50;3.20;;;;;;;5.53;66.79;95675.50;6909336;28;21003;-71
2021/03/17 05:32:21;;;;;;;6.93;6.33;;;;;;;5.55;66.97;95684.16;6911191;28;20245;-70
2021/03/17 05:35:44;;;;;;;2.67;2.47;;;;;;;5.53;66.65;95688.66;6918260;28;20315;-71
2021/03/17 05:39:05;;;;;;;3.73;3.43;;;;;;;5.53;67.18;95693.13;6909500;28;20213;-71
2021/03/17 05:42:27;;;;;;;2.73;2.53;;;;;;;5.56;66.72;95696.41;6913862;28;20221;-70
2021/03/17 05:45:48;;;;;;;2.80;2.60;;;;;;;5.54;66.80;95694.78;6914513;28;20213;-71
2021/03/17 05:49:11;;;;;;;2.70;2.50;;;;;;;5.48;66.88;95698.66;6893430;28;20291;-70
2021/03/17 05:52:32;;;;;;;1.90;1.80;;;;;;;5.46;66.92;95703.19;6890792;28;20225;-70
2021/03/17 05:55:53;;;;;;;2.10;2.00;;;;;;;5.45;67.38;95706.75;6887650;28;20636;-71
2021/03/17 05:59:13;;;;;;;2.10;2.00;;;;;;;5.47;67.05;95711.94;6889958;28;20223;-71
2021/03/17 06:02:38;;;;;;;2.27;1.70;;;;;;;5.47;67.33;95715.41;6886907;28;20988;-71
2021/03/17 06:05:58;;;;;;;1.60;1.50;;;;;;;5.45;66.89;95714.66;6902271;28;20212;-71
2021/03/17 06:09:20;;;;;;;2.20;2.10;;;;;;;5.42;67.30;95722.75;6902032;28;20708;-71
2021/03/17 06:12:46;;;;;;;2.03;1.93;;;;;;;5.42;67.04;95722.75;6901405;28;20225;-71
2021/03/17 06:16:11;;;;;;;2.47;2.27;;;;;;;5.41;67.20;95723.69;6917245;28;20222;-71
2021/03/17 06:19:35;;;;;;;2.77;2.57;;;;;;;5.48;67.35;95714.44;6900248;28;20228;-71
2021/03/17 06:22:57;;;;;;;3.53;3.23;;;;;;;5.52;67.30;95728.31;6912357;28;20257;-71
2021/03/17 06:26:19;;;;;;;3.10;2.90;;;;;;;5.55;67.33;95731.59;6908985;28;20604;-71
2021/03/17 06:29:40;;;;;;;3.87;3.57;;;;;;;5.50;66.64;95728.38;6914859;28;20223;-71
2021/03/17 06:33:00;;;;;;;3.60;3.30;;;;;;;5.49;67.19;95731.94;6919818;28;20250;-71
2021/03/17 06:36:23;;;;;;;3.50;3.20;;;;;;;5.53;67.25;95730.81;6915212;28;20216;-71
2021/03/17 06:39:44;;;;;;;3.87;3.57;;;;;;;5.57;67.28;95736.75;6912764;28;20258;-72
2021/03/17 06:43:08;;;;;;;3.90;3.60;;;;;;;5.63;67.05;95729.31;6908650;28;20228;-73
2021/03/17 06:46:28;;;;;;;3.90;3.60;;;;;;;5.62;66.93;95732.06;6909273;28;20732;-72
2021/03/17 06:49:53;;;;;;;3.60;3.30;;;;;;;5.64;66.80;95735.44;6911701;28;20255;-72
2021/03/17 06:53:23;;;;;;;3.87;3.57;;;;;;;5.65;67.00;95749.44;6899558;28;20252;-72
2021/03/17 06:56:46;;;;;;;4.17;3.87;;;;;;;5.65;66.94;95744.19;6902570;28;20607;-72
2021/03/17 07:00:19;;;;;;;3.17;2.90;;;;;;;5.70;66.93;95760.56;6910658;28;20311;-71
2021/03/17 07:03:42;;;;;;;3.50;3.20;;;;;;;5.78;66.77;95747.78;6902196;28;20219;-72
2021/03/17 07:07:03;;;;;;;3.00;2.70;;;;;;;5.83;66.75;95749.19;6908528;28;20228;-72
2021/03/17 07:10:27;;;;;;;3.47;3.17;;;;;;;5.87;66.41;95753.34;6897201;28;20225;-73
2021/03/17 07:14:17;;;;;;;3.57;3.30;;;;;;;5.87;66.21;95755.13;6863453;28;20281;-75
2021/03/17 07:17:37;;;;;;;3.47;3.17;;;;;;;5.88;66.34;95765.59;6887035;28;20219;-75
2021/03/17 07:21:05;;;;;;;3.17;2.90;;;;;;;5.91;65.82;95765.38;6887388;28;20307;-74
2021/03/17 07:24:25;;;;;;;3.93;3.33;;;;;;;5.79;65.51;95766.09;6884596;28;20239;-74
2021/03/17 07:27:56;;;;;;;5.17;2.70;;;;;;;5.63;65.45;95767.16;6884512;28;20232;-74
2021/03/17 07:31:18;;;;;;;3.20;2.90;;;;;;;5.52;66.49;95776.56;6885248;28;20279;-74
2021/03/17 07:34:39;;;;;;;3.53;3.23;;;;;;;5.53;66.78;95790.59;6884331;28;20744;-75
2021/03/17 07:38:13;;;;;;;3.33;3.10;;;;;;;5.57;67.02;95805.25;6881648;28;20224;-74
2021/03/17 07:41:34;;;;;;;3.53;3.23;;;;;;;5.56;67.42;95800.94;6885888;28;20235;-74
2021/03/17 07:44:55;;;;;;;3.80;3.50;;;;;;;5.66;67.27;95801.22;6888594;28;20236;-74
2021/03/17 07:48:18;;;;;;;3.57;3.27;;;;;;;5.70;66.42;95797.44;6886138;28;20683;-73
2021/03/17 07:51:51;;;;;;;3.83;3.53;;;;;;;5.79;67.13;95799.50;6875874;28;20720;-75
2021/03/17 07:55:12;;;;;;;3.87;3.57;;;;;;;5.92;67.42;95801.34;6887257;28;20287;-73
2021/03/17 07:58:33;;;;;;;3.27;3.07;;;;;;;6.02;66.49;95806.91;6886729;28;20694;-74
2021/03/17 08:01:55;;;;;;;4.00;3.70;;;;;;;5.96;66.07;95809.91;6890725;28;20287;-72
2021/03/17 08:05:16;;;;;;;3.60;3.30;;;;;;;5.95;66.08;95810.84;6889171;28;20351;-73
2021/03/17 08:08:37;;;;;;;3.90;3.60;;;;;;;5.93;65.93;95813.59;6878457;28;20220;-73
2021/03/17 08:12:00;;;;;;;3.53;3.30;;;;;;;5.82;65.65;95817.78;6890089;28;20311;-73
2021/03/17 08:15:21;;;;;;;3.80;3.50;;;;;;;5.80;66.18;95824.94;6892404;28;20240;-74
2021/03/17 08:18:43;;;;;;;3.80;3.50;;;;;;;5.80;66.40;95822.28;6880616;28;20219;-74
2021/03/17 08:22:05;;;;;;;3.73;3.43;;;;;;;5.82;66.78;95828.34;6906658;28;20220;-75
2021/03/17 08:25:45;;;;;;;4.00;3.70;;;;;;;5.74;66.23;95827.94;6907769;28;20244;-73
2021/03/17 08:29:13;;;;;;;3.70;3.40;;;;;;;5.66;66.66;95828.41;6912890;28;20228;-73
2021/03/17 08:32:59;;;;;;;4.60;4.20;;;;;;;5.68;67.14;95836.22;6907586;28;20604;-74
2021/03/17 08:36:19;;;;;;;4.37;3.97;;;;;;;5.68;67.75;95828.31;6893056;28;20221;-75
2021/03/17 08:39:41;;;;;;;3.77;3.47;;;;;;;5.80;67.81;95835.47;6907465;28;20224;-74
2021/03/17 08:43:30;;;;;;;3.23;3.03;;;;;;;5.94;67.72;95833.72;6883125;28;20977;-73
2021/03/17 08:46:52;;;;;;;8.53;6.60;;;;;;;5.99;67.30;95831.66;6885384;28;20721;-74
2021/03/17 08:50:15;;;;;;;3.40;3.10;;;;;;;6.01;67.16;95818.38;6884245;28;20272;-74
2021/03/17 08:53:39;;;;;;;3.57;3.27;;;;;;;6.04;67.13;95821.66;6885853;28;20608;-73
2021/03/17 08:57:04;;;;;;;2.90;2.70;;;;;;;6.15;66.81;95826.28;6894306;28;20209;-73
2021/03/17 09:00:59;;;;;;;2.63;2.43;;;;;;;6.17;65.93;95820.91;6895393;28;20239;-74
2021/03/17 09:04:48;;;;;;;3.40;3.17;;;;;;;6.18;65.46;95817.34;6894638;28;20220;-75
2021/03/17 09:08:09;;;;;;;2.80;2.60;;;;;;;6.19;65.71;95834.84;6877521;28;20296;-74
2021/03/17 09:11:30;;;;;;;3.70;3.33;;;;;;;6.20;65.83;95837.38;6885059;28;20223;-73
2021/03/17 09:14:53;;;;;;;3.40;3.10;;;;;;;6.23;66.04;95836.38;6887841;28;20225;-73
2021/03/17 09:18:14;;;;;;;3.10;2.80;;;;;;;6.29;64.85;95835.94;6890254;28;20579;-74
2021/03/17 09:21:45;;;;;;;2.93;2.73;;;;;;;6.07;65.67;95836.47;6892007;28;20220;-73
2021/03/17 09:25:32;;;;;;;5.30;4.80;;;;;;;6.00;67.43;95843.91;6888859;28;20220;-74
2021/03/17 09:28:54;;;;;;;4.30;3.90;;;;;;;6.05;68.27;95846.25;6889954;28;20244;-73
2021/03/17 09:32:14;;;;;;;3.30;3.10;;;;;;;5.95;67.12;95853.88;6892141;28;20259;-73
2021/03/17 09:35:36;;;;;;;3.73;3.43;;;;;;;5.90;67.66;95852.44;6890578;28;20216;-73
2021/03/17 09:39:02;;;;;;;3.70;3.40;;;;;;;5.95;68.25;95848.59;6892312;28;20303;-73
2021/03/17 09:42:22;;;;;;;3.23;3.03;;;;;;;6.01;67.71;95852.66;6889863;28;20295;-74
2021/03/17 09:45:45;;;;;;;3.67;3.33;;;;;;;6.09;67.23;95844.25;6897756;28;20216;-73
2021/03/17 09:49:11;;;;;;;3.47;3.17;;;;;;;6.02;66.85;95851.72;6887747;28;20305;-73
2021/03/17 09:52:34;;;;;;;3.90;3.60;;;;;;;6.03;67.47;95856.91;6902172;28;20702;-73
2021/03/17 09:55:54;;;;;;;3.70;3.40;;;;;;;6.17;67.36;95845.50;6894590;28;20749;-74
2021/03/17 09:59:31;;;;;;;3.33;3.03;;;;;;;6.20;66.05;95855.84;6896144;28;20252;-72
2021/03/17 10:02:55;;;;;;;3.27;3.00;;;;;;;6.24;65.60;95859.97;6892759;28;20223;-73
2021/03/17 10:06:15;;;;;;;3.53;3.23;;;;;;;6.21;65.26;95856.69;6903831;28;20292;-73
2021/03/17 10:09:37;;;;;;;3.50;3.20;;;;;;;6.07;65.24;95857.56;6903910;28;20227;-73
2021/03/17 10:12:57;;;;;;;3.80;3.50;;;;;;;5.96;66.33;95847.66;6902400;28;20228;-73
2021/03/17 10:16:20;;;;;;;4.83;3.63;;;;;;;5.98;67.80;95843.16;6897534;28;20228;-74
2021/03/17 10:19:42;;;;;;;3.50;3.20;;;;;;;6.10;68.14;95846.81;6900742;28;20232;-74
2021/03/17 10:23:04;;;;;;;3.80;3.50;;;;;;;6.14;67.78;95844.81;6895418;28;20235;-74
2021/03/17 10:26:29;;;;;;;3.50;3.20;;;;;;;6.15;67.72;95842.09;6910968;28;20228;-74
2021/03/17 10:29:51;;;;;;;3.17;2.97;;;;;;;6.17;67.31;95836.75;6915352;28;20216;-74
2021/03/17 10:33:13;;;;;;;3.70;3.40;;;;;;;6.15;66.88;95841.25;6900175;28;20719;-73
2021/03/17 10:36:37;;;;;;;3.90;3.60;;;;;;;6.10;66.43;95833.63;6915427;28;20250;-74
2021/03/17 10:40:06;;;;;;;4.10;3.80;;;;;;;6.13;66.36;95845.78;6907830;28;20379;-73
2021/03/17 10:43:32;;;;;;;3.47;3.27;;;;;;;6.17;66.31;95842.00;6904491;28;20228;-73
2021/03/17 10:47:06;;;;;;;5.25;4.85;;;;;;;6.33;65.46;95835.69;6901340;28;20468;-75
2021/03/17 10:50:33;;;;;;;3.50;3.30;;;;;;;6.37;65.84;95836.34;6914932;28;20248;-75
2021/03/17 10:53:54;;;;;;;3.13;2.93;;;;;;;6.54;65.51;95833.47;6896690;28;20217;-75
2021/03/17 10:57:26;;;;;;;4.03;3.73;;;;;;;6.66;64.59;95840.59;6907313;28;20219;-75
2021/03/17 11:00:49;;;;;;;3.60;3.40;;;;;;;6.76;64.48;95836.44;6895979;28;20212;-73
2021/03/17 11:04:12;;;;;;;3.17;2.97;;;;;;;6.78;64.01;95837.19;6903462;28;20209;-74
2021/03/17 11:08:07;;;;;;;3.40;3.10;;;;;;;6.77;64.01;95829.38;6905030;28;20307;-73
2021/03/17 11:11:28;;;;;;;3.43;3.17;;;;;;;6.94;64.77;95831.72;6895261;28;20228;-73
2021/03/17 11:14:48;;;;;;;2.70;2.50;;;;;;;7.16;63.76;95824.09;6901430;28;20211;-74
2021/03/17 11:18:10;;;;;;;2.70;2.50;;;;;;;7.46;63.90;95831.78;6911000;28;20216;-73
2021/03/17 11:21:34;;;;;;;2.90;2.70;;;;;;;7.77;63.57;95830.53;6918263;28;20804;-74
2021/03/17 11:25:05;;;;;;;2.00;1.90;;;;;;;8.06;62.07;95826.72;6911150;28;20208;-74
2021/03/17 11:28:27;;;;;;;2.30;2.20;;;;;;;8.09;61.53;95825.69;6916252;28;20211;-73
2021/03/17 11:31:50;;;;;;;2.00;1.90;;;;;;;8.12;62.61;95830.75;6913171;28;20216;-73
2021/03/17 11:35:12;;;;;;;2.13;1.93;;;;;;;8.02;61.57;95837.63;6897640;28;20216;-74
2021/03/17 11:38:34;;;;;;;1.77;1.67;;;;;;;7.85;61.50;95835.28;6900095;28;20212;-74
2021/03/17 11:41:54;;;;;;;1.90;1.80;;;;;;;7.67;61.41;95840.91;6900410;28;20739;-74
2021/03/17 11:45:17;;;;;;;2.00;1.90;;;;;;;7.77;62.44;95833.19;6911392;28;20239;-74
2021/03/17 11:48:38;;;;;;;1.77;1.67;;;;;;;7.94;62.12;95835.53;6912191;28;20227;-73
2021/03/17 11:51:58;;;;;;;2.23;2.13;;;;;;;8.12;62.13;95825.47;6909587;28;20220;-75
2021/03/17 11:55:22;;;;;;;2.10;2.00;;;;;;;8.22;60.83;95820.38;6912090;28;20760;-74
2021/03/17 11:58:43;;;;;;;2.53;2.33;;;;;;;8.18;61.01;95828.53;6907327;28;20212;-75
2021/03/17 12:02:08;;;;;;;1.93;1.83;;;;;;;7.75;60.03;95822.72;6900000;28;20335;-74
2021/03/17 12:05:28;;;;;;;2.40;2.20;;;;;;;7.60;61.33;95822.91;6895928;28;20260;-75
2021/03/17 12:08:52;;;;;;;2.60;2.40;;;;;;;7.62;61.40;95823.66;6898069;28;20220;-74
2021/03/17 12:12:12;;;;;;;2.33;2.13;;;;;;;7.83;61.07;95821.34;6907444;28;20240;-73
2021/03/17 12:15:35;;;;;;;2.97;2.77;;;;;;;8.15;60.85;95810.22;6921302;28;20228;-74
2021/03/17 12:18:55;;;;;;;3.30;3.00;;;;;;;8.58;61.01;95799.25;6913759;28;20216;-75
2021/03/17 12:22:16;;;;;;;3.60;3.00;;;;;;;8.83;59.06;95801.81;6914722;28;20309;-73
2021/03/17 12:25:36;;;;;;;3.43;3.20;;;;;;;8.97;58.79;95812.22;6917108;28;20247;-73
2021/03/17 12:28:59;;;;;;;3.20;3.00;;;;;;;9.20;58.35;95810.53;6920176;28;20306;-73
2021/03/17 12:32:19;;;;;;;5.40;5.00;;;;;;;9.60;58.21;95812.84;6921477;28;20216;-75
2021/03/17 12:35:42;;;;;;;5.40;5.00;;;;;;;10.00;57.72;95814.13;6905793;28;20212;-74
2021/03/17 12:39:11;;;;;;;4.20;3.90;;;;;;;10.13;54.95;95798.06;6915487;28;20689;-74
2021/03/17 12:42:31;;;;;;;3.70;3.40;;;;;;;10.24;56.00;95791.00;6918454;28;20300;-74
2021/03/17 12:45:52;;;;;;;3.67;3.37;;;;;;;10.30;55.49;95801.16;6915154;28;22072;-75
2021/03/17 12:49:15;;;;;;;3.30;3.00;;;;;;;10.33;55.61;95798.22;6886874;28;20229;-74
2021/03/17 12:52:35;;;;;;;3.40;3.10;;;;;;;10.43;55.25;95794.84;6903917;28;20225;-75
2021/03/17 12:55:56;;;;;;;7.10;6.30;;;;;;;10.49;55.33;95783.75;6912357;28;20652;-74
2021/03/17 12:59:16;;;;;;;4.00;3.70;;;;;;;10.82;55.48;95782.81;6909130;28;20222;-74
2021/03/17 13:02:39;;;;;;;4.90;4.50;;;;;;;11.35;55.39;95781.91;6916114;28;20762;-75
2021/03/17 13:05:59;;;;;;;3.63;3.33;;;;;;;11.35;52.44;95779.25;6906392;28;20273;-75
2021/03/17 13:09:20;;;;;;;3.43;3.13;;;;;;;11.14;51.17;95771.25;6921690;28;20291;-73
2021/03/17 13:12:44;;;;;;;3.37;2.87;;;;;;;11.01;50.67;95764.41;6917608;28;20245;-74
2021/03/17 13:16:07;;;;;;;2.93;2.73;;;;;;;10.73;51.03;95760.50;6921815;28;20229;-74
2021/03/17 13:19:28;;;;;;;3.73;3.40;;;;;;;10.75;52.73;95754.13;6919074;28;20721;-74
2021/03/17 13:22:48;;;;;;;3.50;3.17;;;;;;;10.70;52.33;95751.00;6915532;28;20782;-74
2021/03/17 13:26:08;;;;;;;3.57;3.27;;;;;;;10.95;53.20;95743.66;6915379;28;20294;-76
2021/03/17 13:29:31;;;;;;;3.00;2.80;;;;;;;11.12;52.40;95737.78;6919393;28;20716;-76
2021/03/17 13:32:52;;;;;;;3.20;3.00;;;;;;;10.93;52.88;95741.13;6917351;28;20337;-74
2021/03/17 13:36:12;;;;;;;3.90;3.53;;;;;;;11.06;53.65;95733.84;6917646;28;20217;-76
2021/03/17 13:39:33;;;;;;;3.37;3.17;;;;;;;11.22;53.67;95727.25;6916259;28;20221;-75
2021/03/17 13:42:56;;;;;;;3.40;3.10;;;;;;;11.19;53.90;95723.03;6915320;28;20229;-74
2021/03/17 13:46:16;;;;;;;3.33;3.10;;;;;;;11.34;54.42;95723.53;6904936;28;20213;-76
2021/03/17 13:49:39;;;;;;;3.87;3.57;;;;;;;11.21;53.69;95734.38;6910794;28;20238;-74
2021/03/17 13:53:02;;;;;;;3.10;2.80;;;;;;;10.96;53.37;95732.91;6904880;28;20278;-74
2021/03/17 13:56:23;;;;;;;3.50;2.87;;;;;;;10.64;53.89;95740.00;6914827;28;20212;-75
2021/03/17 13:59:43;;;;;;;2.83;2.63;;;;;;;10.38;53.67;95736.81;6908648;28;20282;-75
2021/03/17 14:03:06;;;;;;;2.13;2.03;;;;;;;9.99;53.68;95739.94;6911836;28;20240;-74
2021/03/17 14:06:26;;;;;;;2.83;2.63;;;;;;;9.56;53.92;95742.41;6906300;28;20220;-77
2021/03/17 14:09:46;;;;;;;3.47;3.17;;;;;;;9.30;55.30;95737.34;6918488;28;20290;-74
2021/03/17 14:13:07;;;;;;;5.50;5.10;;;;;;;9.24;55.65;95740.44;6911711;28;20231;-73
2021/03/17 14:16:27;;;;;;;3.53;3.33;;;;;;;9.25;56.54;95738.66;6921104;28;20341;-73
2021/03/17 14:19:48;;;;;;;2.90;2.70;;;;;;;9.17;56.66;95739.22;6916796;28;20235;-73
2021/03/17 14:23:08;;;;;;;2.77;2.57;;;;;;;8.93;56.48;95739.25;6893131;28;20221;-73
2021/03/17 14:26:32;;;;;;;3.60;3.40;;;;;;;8.74;57.56;95733.63;6911198;28;20601;-74
2021/03/17 14:29:53;;;;;;;5.77;5.27;;;;;;;8.78;58.53;95736.91;6916708;28;20258;-73
2021/03/17 14:33:13;;;;;;;3.20;2.90;;;;;;;8.88;58.69;95728.16;6918897;28;20224;-74
2021/03/17 14:36:35;;;;;;;3.17;2.97;;;;;;;9.01;58.38;95736.03;6914793;28;20632;-74
2021/03/17 14:39:56;;;;;;;3.90;3.60;;;;;;;9.05;58.31;95740.16;6912639;28;20285;-73
2021/03/17 14:43:16;;;;;;;2.70;2.50;;;;;;;9.03;57.55;95740.25;6910299;28;20315;-73
2021/03/17 14:46:36;;;;;;;2.83;2.63;;;;;;;9.00;58.01;95740.47;6910614;28;20674;-74
2021/03/17 14:49:57;;;;;;;2.90;2.70;;;;;;;8.96;57.70;95743.47;6900365;28;20992;-74
2021/03/17 14:53:22;;;;;;;2.70;2.50;;;;;;;8.90;57.46;95736.00;6899900;28;20648;-73
2021/03/17 14:56:42;;;;;;;2.77;2.57;;;;;;;8.85;57.07;95735.50;6894481;28;20218;-73
2021/03/17 15:00:05;;;;;;;2.60;2.40;;;;;;;8.81;57.69;95739.31;6911283;28;20216;-73
2021/03/17 15:03:26;;;;;;;3.60;3.30;;;;;;;8.84;58.96;95733.81;6905938;28;20594;-73
2021/03/17 15:06:46;;;;;;;2.70;2.50;;;;;;;8.79;58.44;95722.72;6909423;28;20838;-74
2021/03/17 15:10:11;;;;;;;3.50;3.20;;;;;;;8.67;58.99;95721.81;6911304;28;20231;-74
2021/03/17 15:13:32;;;;;;;2.30;2.20;;;;;;;8.39;59.25;95730.09;6919981;28;20221;-74
2021/03/17 15:16:52;;;;;;;6.67;6.07;;;;;;;8.19;59.63;95721.75;6916203;28;20217;-73
2021/03/17 15:20:18;;;;;;;2.13;2.03;;;;;;;7.89;60.39;95720.44;6902938;28;20760;-73
2021/03/17 15:23:41;;;;;;;2.00;1.90;;;;;;;7.61;60.87;95721.53;6896698;28;20283;-74
2021/03/17 15:27:03;;;;;;;2.27;2.17;;;;;;;7.35;60.78;95720.69;6910946;28;20678;-74
2021/03/17 15:30:24;;;;;;;3.13;2.83;;;;;;;7.21;61.57;95729.56;6914069;28;20286;-72
2021/03/17 15:33:46;;;;;;;3.00;2.43;;;;;;;7.15;61.73;95727.31;6913270;28;20224;-73
2021/03/17 15:37:07;;;;;;;2.80;2.60;;;;;;;7.09;61.86;95727.72;6906889;28;20302;-72
2021/03/17 15:40:28;;;;;;;2.50;2.30;;;;;;;7.02;62.27;95729.13;6912213;28;20254;-72
2021/03/17 15:43:50;;;;;;;2.87;2.60;;;;;;;7.03;62.61;95732.59;6906233;28;20232;-74
2021/03/17 15:47:11;;;;;;;2.50;2.30;;;;;;;7.01;62.91;95737.97;6891505;28;20753;-74
2021/03/17 15:50:39;;;;;;;2.30;2.17;;;;;;;7.01;62.58;95732.69;6915338;28;20239;-74
2021/03/17 15:54:00;;;;;;;2.07;1.97;;;;;;;7.01;62.75;95735.34;6911435;28;20219;-73
2021/03/17 15:57:25;;;;;;;2.23;2.03;;;;;;;7.00;62.77;95730.16;6900942;28;20262;-74
2021/03/17 16:00:46;;;;;;;2.37;2.17;;;;;;;7.08;63.60;95731.34;6910035;28;20656;-74
2021/03/17 16:04:06;;;;;;;2.43;2.27;;;;;;;7.24;63.82;95741.72;6902355;28;20674;-73
2021/03/17 16:07:28;;;;;;;3.00;2.80;;;;;;;7.40;63.75;95746.78;6919158;28;20239;-73